Time;durP1;ratioP1;P1;durP2;ratioP2;P2;SDS_P1;SDS_P2;PMS_P1;PMS_P2;Temp;Humidity;BMP_temperature;BMP_pressure;BME280_temperature;BME280_humidity;BME280_pressure;Samples;Min_cycle;Max_cycle;Signal;HPM_P1;HPM_P2
2022/12/06 00:01:36;;;;;;;6.28;1.30;;;;;;;;;;5055692;28;20042;-72
2022/12/06 00:04:04;;;;;;;3.25;1.02;;;;;;;;;;5057618;28;20025;-72
2022/12/06 00:06:31;;;;;;;8.15;1.15;;;;;;;;;;5060819;28;20938;-72
2022/12/06 00:08:58;;;;;;;2.15;0.90;;;;;;;;;;5061110;28;20025;-73
2022/12/06 00:11:25;;;;;;;4.40;0.90;;;;;;;;;;5064325;28;20027;-72
2022/12/06 00:13:53;;;;;;;2.90;1.23;;;;;;;;;;5054774;28;20063;-73
2022/12/06 00:16:19;;;;;;;3.53;0.80;;;;;;;;;;5065302;28;20024;-72
2022/12/06 00:21:55;;;;;;;5.63;1.30;;;;;;;;;;4796944;28;20102;-87
2022/12/06 00:24:22;;;;;;;2.50;1.02;;;;;;;;;;5038102;28;20499;-87
2022/12/06 00:26:49;;;;;;;3.50;1.05;;;;;;;;;;5052770;28;20087;-81
2022/12/06 00:29:20;;;;;;;7.13;1.23;;;;;;;;;;5034437;28;20053;-82
2022/12/06 00:31:46;;;;;;;1.88;0.80;;;;;;;;;;5032994;28;20355;-82
2022/12/06 00:34:13;;;;;;;4.20;1.00;;;;;;;;;;5037973;28;20041;-82
2022/12/06 00:36:40;;;;;;;4.85;1.83;;;;;;;;;;5042004;28;20025;-82
2022/12/06 00:39:11;;;;;;;4.07;0.90;;;;;;;;;;5041460;28;20032;-82
2022/12/06 00:41:38;;;;;;;4.47;1.42;;;;;;;;;;5041288;28;20139;-82
2022/12/06 00:44:04;;;;;;;4.53;0.90;;;;;;;;;;5049751;28;20044;-82
2022/12/06 00:46:31;;;;;;;3.28;1.08;;;;;;;;;;5042728;28;20123;-82
2022/12/06 00:48:57;;;;;;;6.93;1.10;;;;;;;;;;5056423;28;20023;-82
2022/12/06 00:51:24;;;;;;;5.28;1.02;;;;;;;;;;5040271;28;20098;-82
2022/12/06 00:53:50;;;;;;;4.18;1.02;;;;;;;;;;5036314;28;20374;-82
2022/12/06 00:56:18;;;;;;;5.43;1.20;;;;;;;;;;5037337;28;20036;-82
2022/12/06 00:58:44;;;;;;;2.17;0.95;;;;;;;;;;5038068;28;20425;-81
2022/12/06 01:01:15;;;;;;;4.65;0.85;;;;;;;;;;5038101;28;20028;-82
2022/12/06 01:03:42;;;;;;;7.97;1.35;;;;;;;;;;5037680;28;20022;-81
2022/12/06 01:06:10;;;;;;;5.15;1.00;;;;;;;;;;5040503;28;20037;-81
2022/12/06 01:08:36;;;;;;;5.22;0.90;;;;;;;;;;5040330;28;20025;-83
2022/12/06 01:11:03;;;;;;;4.65;1.17;;;;;;;;;;5044267;28;20088;-82
2022/12/06 01:13:29;;;;;;;3.80;0.90;;;;;;;;;;5042509;28;20468;-83
2022/12/06 01:15:56;;;;;;;2.35;0.80;;;;;;;;;;5045353;28;20037;-82
2022/12/06 01:18:22;;;;;;;3.83;0.93;;;;;;;;;;5043729;28;20383;-82
2022/12/06 01:20:49;;;;;;;7.55;1.58;;;;;;;;;;5051406;28;20017;-82
2022/12/06 01:23:15;;;;;;;5.47;1.02;;;;;;;;;;5044054;28;20037;-82
2022/12/06 01:25:51;;;;;;;4.25;0.80;;;;;;;;;;5042140;28;20100;-82
2022/12/06 01:28:18;;;;;;;3.92;0.82;;;;;;;;;;5041996;28;20025;-82
2022/12/06 01:30:44;;;;;;;4.30;1.00;;;;;;;;;;5044789;28;20021;-82
2022/12/06 01:33:10;;;;;;;4.10;1.10;;;;;;;;;;5033150;28;20047;-82
2022/12/06 01:35:40;;;;;;;2.67;1.05;;;;;;;;;;5040816;28;20087;-82
2022/12/06 01:38:06;;;;;;;5.30;1.10;;;;;;;;;;5039203;28;20551;-82
2022/12/06 01:40:40;;;;;;;4.40;1.10;;;;;;;;;;5045203;28;20039;-82
2022/12/06 01:43:26;;;;;;;5.75;0.90;;;;;;;;;;5055403;28;20025;-83
2022/12/06 01:45:53;;;;;;;2.03;1.10;;;;;;;;;;5042159;28;20062;-82
2022/12/06 01:48:19;;;;;;;3.42;1.38;;;;;;;;;;5039157;28;20018;-82
2022/12/06 01:50:46;;;;;;;5.20;0.90;;;;;;;;;;5039777;28;20163;-82
2022/12/06 01:53:12;;;;;;;9.82;1.10;;;;;;;;;;5034228;28;20025;-82
2022/12/06 01:55:39;;;;;;;5.57;1.00;;;;;;;;;;5034323;28;20025;-82
2022/12/06 01:58:12;;;;;;;3.75;0.98;;;;;;;;;;5043755;28;20044;-82
2022/12/06 02:00:39;;;;;;;3.67;1.23;;;;;;;;;;5038937;28;20059;-82
2022/12/06 02:03:07;;;;;;;6.85;1.00;;;;;;;;;;5034825;28;20028;-82
2022/12/06 02:05:34;;;;;;;4.03;1.00;;;;;;;;;;5040125;28;20120;-82
2022/12/06 02:08:01;;;;;;;3.58;1.20;;;;;;;;;;5045121;28;20108;-82
2022/12/06 02:10:27;;;;;;;3.78;1.20;;;;;;;;;;5037934;28;20021;-82
2022/12/06 02:12:55;;;;;;;4.85;1.00;;;;;;;;;;5039929;28;20025;-82
2022/12/06 02:15:24;;;;;;;10.02;1.90;;;;;;;;;;5039293;28;20483;-82
2022/12/06 02:17:55;;;;;;;2.90;0.80;;;;;;;;;;5044483;28;20017;-82
2022/12/06 02:20:31;;;;;;;6.60;1.23;;;;;;;;;;5038921;28;20158;-82
2022/12/06 02:23:03;;;;;;;4.22;0.88;;;;;;;;;;5041933;28;20283;-82
2022/12/06 02:25:33;;;;;;;7.15;1.70;;;;;;;;;;5042155;28;20586;-82
2022/12/06 02:28:02;;;;;;;4.30;1.10;;;;;;;;;;5034763;28;20136;-82
2022/12/06 02:30:43;;;;;;;1.77;0.77;;;;;;;;;;5040384;28;20022;-82
2022/12/06 02:33:15;;;;;;;4.80;1.00;;;;;;;;;;5038198;28;20493;-82
2022/12/06 02:35:46;;;;;;;9.32;1.40;;;;;;;;;;5041750;28;20025;-82
2022/12/06 02:38:12;;;;;;;5.17;1.40;;;;;;;;;;5037619;28;20026;-82
2022/12/06 02:40:41;;;;;;;6.20;1.17;;;;;;;;;;5036503;28;20020;-81
2022/12/06 02:43:18;;;;;;;8.02;1.38;;;;;;;;;;5049439;28;20071;-81
2022/12/06 02:45:46;;;;;;;4.85;1.13;;;;;;;;;;5032140;28;20084;-82
2022/12/06 02:48:13;;;;;;;4.05;1.10;;;;;;;;;;5035081;28;20108;-81
2022/12/06 02:50:42;;;;;;;5.55;1.38;;;;;;;;;;5030133;28;20021;-82
2022/12/06 02:53:12;;;;;;;9.40;1.40;;;;;;;;;;5028589;28;20111;-82
2022/12/06 02:55:38;;;;;;;6.63;1.50;;;;;;;;;;5045620;28;20048;-82
2022/12/06 02:58:05;;;;;;;5.90;1.23;;;;;;;;;;5044466;28;20151;-82
2022/12/06 03:00:31;;;;;;;5.90;1.52;;;;;;;;;;5037641;28;20052;-82
2022/12/06 03:03:16;;;;;;;4.45;1.10;;;;;;;;;;5044926;28;20071;-82
2022/12/06 03:06:01;;;;;;;8.27;1.48;;;;;;;;;;5037242;28;20042;-82
2022/12/06 03:08:47;;;;;;;3.35;0.98;;;;;;;;;;5039313;28;20044;-82
2022/12/06 03:11:13;;;;;;;6.63;1.00;;;;;;;;;;5022143;28;20033;-82
2022/12/06 03:13:42;;;;;;;8.65;1.27;;;;;;;;;;5033148;28;20021;-82
2022/12/06 03:16:09;;;;;;;2.42;1.02;;;;;;;;;;5038329;28;20080;-82
2022/12/06 03:18:38;;;;;;;4.65;1.02;;;;;;;;;;5043480;28;20565;-82
2022/12/06 03:21:13;;;;;;;4.43;1.00;;;;;;;;;;5034266;28;20164;-82
2022/12/06 03:23:41;;;;;;;6.63;1.40;;;;;;;;;;5044671;28;20555;-82
2022/12/06 03:26:10;;;;;;;9.88;1.48;;;;;;;;;;5045932;28;20065;-81
2022/12/06 03:28:37;;;;;;;10.82;1.80;;;;;;;;;;5029278;28;20025;-82
2022/12/06 03:31:05;;;;;;;6.65;1.27;;;;;;;;;;5032227;28;20123;-81
2022/12/06 03:33:36;;;;;;;7.28;1.10;;;;;;;;;;5028651;28;20031;-82
2022/12/06 03:36:02;;;;;;;3.17;1.15;;;;;;;;;;5029933;28;20020;-83
2022/12/06 03:38:43;;;;;;;2.17;1.13;;;;;;;;;;5030062;28;20112;-83
2022/12/06 03:41:10;;;;;;;12.30;1.77;;;;;;;;;;5038361;28;20029;-82
2022/12/06 03:43:36;;;;;;;3.97;1.40;;;;;;;;;;5028352;28;20422;-81
2022/12/06 03:46:06;;;;;;;6.07;1.65;;;;;;;;;;5038764;28;20172;-83
2022/12/06 03:48:35;;;;;;;8.63;1.38;;;;;;;;;;5029502;28;20091;-83
2022/12/06 03:51:04;;;;;;;7.25;1.05;;;;;;;;;;5031210;28;20029;-83
2022/12/06 03:53:31;;;;;;;5.32;1.45;;;;;;;;;;5041706;28;20087;-82
2022/12/06 03:55:57;;;;;;;8.23;1.33;;;;;;;;;;5036311;28;20069;-83
2022/12/06 03:58:23;;;;;;;3.50;1.15;;;;;;;;;;5044795;28;20150;-82
2022/12/06 04:00:49;;;;;;;6.13;1.33;;;;;;;;;;5034331;28;20399;-83
2022/12/06 04:03:16;;;;;;;7.55;1.35;;;;;;;;;;5042307;28;20074;-83
2022/12/06 04:05:42;;;;;;;3.05;1.13;;;;;;;;;;5037277;28;20044;-82
2022/12/06 04:08:08;;;;;;;4.30;1.27;;;;;;;;;;5039140;28;20025;-83
2022/12/06 04:10:34;;;;;;;9.07;1.25;;;;;;;;;;5030948;28;20040;-82
2022/12/06 04:13:01;;;;;;;5.35;1.10;;;;;;;;;;5030809;28;20029;-83
2022/12/06 04:15:28;;;;;;;2.17;0.90;;;;;;;;;;5044243;28;20813;-83
2022/12/06 04:18:10;;;;;;;14.57;1.60;;;;;;;;;;5033542;28;20029;-82
2022/12/06 04:23:30;;;;;;;6.03;0.95;;;;;;;;;;5029448;28;20048;-83
2022/12/06 04:25:56;;;;;;;2.63;0.90;;;;;;;;;;5033425;28;20040;-83
2022/12/06 04:39:23;;;;;;;4.35;1.00;;;;;;;;;;5032273;28;20044;-82
2022/12/06 04:44:35;;;;;;;2.00;0.82;;;;;;;;;;5033771;28;20037;-82
2022/12/06 04:47:01;;;;;;;2.60;0.93;;;;;;;;;;5038192;28;20072;-83
2022/12/06 04:49:27;;;;;;;3.47;0.80;;;;;;;;;;5051217;28;20021;-82
2022/12/06 04:51:54;;;;;;;6.95;0.95;;;;;;;;;;5042189;28;20612;-82
2022/12/06 04:54:20;;;;;;;5.97;1.17;;;;;;;;;;5049603;28;20417;-82
2022/12/06 04:56:47;;;;;;;6.07;1.10;;;;;;;;;;5041142;28;20020;-83
2022/12/06 04:59:13;;;;;;;9.18;1.20;;;;;;;;;;5038358;28;20031;-83
2022/12/06 05:01:39;;;;;;;6.90;1.13;;;;;;;;;;5026499;28;20025;-83
2022/12/06 05:04:05;;;;;;;3.58;0.95;;;;;;;;;;5034680;28;20143;-82
2022/12/06 05:06:31;;;;;;;3.97;1.00;;;;;;;;;;5041390;28;20032;-82
2022/12/06 05:08:58;;;;;;;8.10;1.20;;;;;;;;;;5038068;28;20209;-83
2022/12/06 05:11:24;;;;;;;9.18;0.90;;;;;;;;;;5053708;28;20028;-83
2022/12/06 05:13:50;;;;;;;3.92;0.88;;;;;;;;;;5037197;28;20144;-84
2022/12/06 05:16:18;;;;;;;3.08;1.00;;;;;;;;;;5038670;28;20065;-82
2022/12/06 05:18:44;;;;;;;6.18;1.10;;;;;;;;;;5033559;28;20051;-82
2022/12/06 05:21:13;;;;;;;3.35;0.98;;;;;;;;;;5034152;28;20123;-82
2022/12/06 05:23:39;;;;;;;3.03;1.00;;;;;;;;;;5027096;28;20282;-82
2022/12/06 05:26:07;;;;;;;5.50;0.95;;;;;;;;;;5032572;28;20043;-83
2022/12/06 05:28:33;;;;;;;9.40;1.20;;;;;;;;;;5031831;28;20024;-83
2022/12/06 05:31:00;;;;;;;7.55;0.98;;;;;;;;;;5040247;28;20021;-83
2022/12/06 05:33:26;;;;;;;4.78;1.20;;;;;;;;;;5035410;28;20434;-83
2022/12/06 05:35:52;;;;;;;4.40;1.00;;;;;;;;;;5032820;28;20113;-83
2022/12/06 05:38:19;;;;;;;8.35;1.50;;;;;;;;;;5038835;28;20043;-83
2022/12/06 05:40:46;;;;;;;4.75;1.35;;;;;;;;;;5038658;28;20025;-84
2022/12/06 05:43:12;;;;;;;7.53;1.10;;;;;;;;;;5039002;28;20122;-83
2022/12/06 05:45:38;;;;;;;2.42;0.80;;;;;;;;;;5034119;28;20556;-83
2022/12/06 05:48:07;;;;;;;6.30;1.17;;;;;;;;;;5037012;28;20475;-82
2022/12/06 05:50:34;;;;;;;5.95;1.05;;;;;;;;;;5034258;28;20471;-83
2022/12/06 05:53:01;;;;;;;4.97;0.98;;;;;;;;;;5036098;28;20029;-83
2022/12/06 05:55:28;;;;;;;4.20;0.95;;;;;;;;;;5041213;28;20022;-81
2022/12/06 05:57:54;;;;;;;7.28;1.48;;;;;;;;;;5040584;28;20025;-83
2022/12/06 06:00:20;;;;;;;6.47;1.15;;;;;;;;;;5033740;28;20029;-83
2022/12/06 06:02:50;;;;;;;3.20;0.90;;;;;;;;;;5036238;28;20040;-82
2022/12/06 06:05:16;;;;;;;4.18;1.25;;;;;;;;;;5037309;28;20119;-82
2022/12/06 06:07:42;;;;;;;5.20;1.30;;;;;;;;;;5037717;28;20037;-83
2022/12/06 06:10:12;;;;;;;3.63;1.42;;;;;;;;;;5042815;28;20195;-82
2022/12/06 06:12:38;;;;;;;5.03;1.02;;;;;;;;;;5034469;28;20033;-83
2022/12/06 06:15:06;;;;;;;5.43;0.90;;;;;;;;;;5035857;28;20120;-83
2022/12/06 06:17:36;;;;;;;4.85;0.88;;;;;;;;;;5047765;28;20075;-82
2022/12/06 06:20:06;;;;;;;3.92;0.98;;;;;;;;;;5034159;28;20060;-82
2022/12/06 06:22:33;;;;;;;5.80;1.05;;;;;;;;;;5034680;28;20045;-83
2022/12/06 06:24:59;;;;;;;6.15;1.17;;;;;;;;;;5035382;28;20026;-83
2022/12/06 06:27:26;;;;;;;11.75;1.73;;;;;;;;;;5032235;28;20047;-83
2022/12/06 06:29:52;;;;;;;5.38;1.00;;;;;;;;;;5037264;28;20208;-82
2022/12/06 06:32:22;;;;;;;6.78;1.70;;;;;;;;;;5030658;28;20174;-83
2022/12/06 06:34:48;;;;;;;4.45;1.30;;;;;;;;;;5027722;28;20033;-82
2022/12/06 06:37:14;;;;;;;4.93;1.00;;;;;;;;;;5037198;28;20028;-82
2022/12/06 06:39:40;;;;;;;2.83;1.00;;;;;;;;;;5041970;28;20033;-83
2022/12/06 06:42:06;;;;;;;6.63;1.02;;;;;;;;;;5026951;28;20026;-83
2022/12/06 06:44:33;;;;;;;6.53;0.82;;;;;;;;;;5041978;28;20044;-83
2022/12/06 06:46:59;;;;;;;5.35;1.27;;;;;;;;;;5029959;28;20123;-83
2022/12/06 06:49:25;;;;;;;8.23;0.90;;;;;;;;;;5038447;28;20021;-83
2022/12/06 06:51:51;;;;;;;5.22;0.90;;;;;;;;;;5048534;28;20070;-83
2022/12/06 06:54:17;;;;;;;5.82;0.98;;;;;;;;;;5028238;28;20136;-83
2022/12/06 06:56:44;;;;;;;5.65;1.10;;;;;;;;;;5050801;28;20035;-83
2022/12/06 06:59:10;;;;;;;5.80;1.25;;;;;;;;;;5032418;28;20527;-83
2022/12/06 07:01:37;;;;;;;4.55;1.00;;;;;;;;;;5044585;28;20063;-84
2022/12/06 07:04:03;;;;;;;2.78;0.85;;;;;;;;;;5035464;28;20108;-84
2022/12/06 07:06:29;;;;;;;2.78;0.65;;;;;;;;;;5028270;28;20036;-84
2022/12/06 07:08:55;;;;;;;4.63;1.08;;;;;;;;;;5026586;28;20112;-84
2022/12/06 07:11:22;;;;;;;3.05;0.80;;;;;;;;;;5029579;28;20086;-84
2022/12/06 07:13:48;;;;;;;6.85;0.82;;;;;;;;;;5034253;28;20090;-82
2022/12/06 07:16:16;;;;;;;4.03;0.90;;;;;;;;;;5035317;28;20124;-82
2022/12/06 07:18:42;;;;;;;3.17;1.02;;;;;;;;;;5047314;28;20412;-83
2022/12/06 07:21:11;;;;;;;19.35;2.65;;;;;;;;;;5030359;28;20116;-82
2022/12/06 07:23:37;;;;;;;3.28;0.90;;;;;;;;;;5035039;28;20032;-83
2022/12/06 07:26:11;;;;;;;3.75;1.42;;;;;;;;;;5027627;28;20044;-83
2022/12/06 07:28:39;;;;;;;6.55;1.10;;;;;;;;;;5029214;28;20049;-83
2022/12/06 07:31:25;;;;;;;3.28;1.02;;;;;;;;;;5023858;28;20024;-83
2022/12/06 07:33:52;;;;;;;5.20;1.00;;;;;;;;;;5027700;28;20024;-83
2022/12/06 07:36:18;;;;;;;3.45;1.23;;;;;;;;;;5022673;28;20116;-84
2022/12/06 07:38:48;;;;;;;5.50;1.42;;;;;;;;;;5025710;28;20059;-83
2022/12/06 07:46:45;;;;;;;3.20;1.20;;;;;;;;;;5030336;28;20057;-83
2022/12/06 07:49:12;;;;;;;4.40;0.90;;;;;;;;;;5028260;28;20022;-83
2022/12/06 07:51:38;;;;;;;4.65;1.33;;;;;;;;;;5031611;28;20053;-83
2022/12/06 07:54:05;;;;;;;4.47;1.30;;;;;;;;;;5029195;28;20025;-83
2022/12/06 07:56:31;;;;;;;5.05;1.30;;;;;;;;;;5031236;28;20029;-83
2022/12/06 07:58:57;;;;;;;2.90;0.85;;;;;;;;;;5026309;28;20108;-83
2022/12/06 08:01:23;;;;;;;4.97;1.23;;;;;;;;;;5027266;28;20061;-83
2022/12/06 08:03:50;;;;;;;3.50;0.88;;;;;;;;;;5026063;28;20022;-83
2022/12/06 08:06:16;;;;;;;3.35;0.98;;;;;;;;;;5031386;28;20482;-83
2022/12/06 08:08:43;;;;;;;3.05;1.10;;;;;;;;;;5036037;28;20706;-83
2022/12/06 08:11:09;;;;;;;5.80;1.10;;;;;;;;;;5047433;28;20052;-83
2022/12/06 08:13:36;;;;;;;4.72;1.05;;;;;;;;;;5037358;28;20521;-83
2022/12/06 08:16:06;;;;;;;7.90;1.42;;;;;;;;;;5046492;28;20155;-83
2022/12/06 08:18:32;;;;;;;5.93;0.90;;;;;;;;;;5037627;28;20099;-83
2022/12/06 08:20:59;;;;;;;4.78;0.93;;;;;;;;;;5055899;28;20029;-83
2022/12/06 08:23:25;;;;;;;2.67;1.08;;;;;;;;;;5040905;28;20449;-83
2022/12/06 08:26:06;;;;;;;8.75;1.35;;;;;;;;;;5048253;28;20021;-82
2022/12/06 08:28:34;;;;;;;6.50;1.33;;;;;;;;;;5037627;28;20025;-82
2022/12/06 08:31:04;;;;;;;5.43;1.13;;;;;;;;;;5035302;28;20498;-83
2022/12/06 08:33:32;;;;;;;3.58;1.10;;;;;;;;;;5031649;28;20120;-83
2022/12/06 08:35:58;;;;;;;1.45;0.88;;;;;;;;;;5034392;28;20060;-82
2022/12/06 08:38:24;;;;;;;4.30;1.08;;;;;;;;;;5039237;28;20017;-81
2022/12/06 08:40:50;;;;;;;8.25;1.25;;;;;;;;;;5048843;28;20021;-81
2022/12/06 08:43:17;;;;;;;4.28;1.20;;;;;;;;;;5030750;28;20120;-81
2022/12/06 08:45:43;;;;;;;4.15;0.98;;;;;;;;;;5037544;28;20033;-81
2022/12/06 08:48:09;;;;;;;5.97;1.20;;;;;;;;;;5031294;28;20055;-81
2022/12/06 08:50:35;;;;;;;9.13;1.58;;;;;;;;;;5030171;28;20029;-82
2022/12/06 08:53:01;;;;;;;4.13;1.00;;;;;;;;;;5040770;28;20079;-81
2022/12/06 08:55:27;;;;;;;9.05;1.77;;;;;;;;;;5031476;28;20053;-81
2022/12/06 08:57:54;;;;;;;6.40;1.70;;;;;;;;;;5029678;28;20123;-81
2022/12/06 09:00:20;;;;;;;5.35;2.13;;;;;;;;;;5031474;28;20387;-80
2022/12/06 09:02:46;;;;;;;6.68;2.22;;;;;;;;;;5039972;28;20025;-81
2022/12/06 09:05:12;;;;;;;5.88;1.55;;;;;;;;;;5051451;28;20040;-82
2022/12/06 09:07:38;;;;;;;5.57;1.40;;;;;;;;;;5039309;28;20442;-81
2022/12/06 09:10:05;;;;;;;7.15;1.83;;;;;;;;;;5050973;28;20067;-81
2022/12/06 09:12:31;;;;;;;6.13;1.75;;;;;;;;;;5036210;28;20040;-82
2022/12/06 09:14:57;;;;;;;5.28;1.70;;;;;;;;;;5048359;28;20100;-82
2022/12/06 09:17:23;;;;;;;5.05;1.95;;;;;;;;;;5034865;28;20430;-81
2022/12/06 09:19:49;;;;;;;7.50;1.67;;;;;;;;;;5038955;28;20021;-81
2022/12/06 09:22:16;;;;;;;5.63;1.50;;;;;;;;;;5036519;28;20072;-82
2022/12/06 09:24:42;;;;;;;4.03;1.52;;;;;;;;;;5028109;28;20021;-81
2022/12/06 09:27:08;;;;;;;6.07;2.10;;;;;;;;;;5035996;28;20271;-81
2022/12/06 09:29:36;;;;;;;4.45;1.70;;;;;;;;;;5039726;28;20025;-82
2022/12/06 09:32:02;;;;;;;7.43;1.77;;;;;;;;;;5038320;28;20047;-82
2022/12/06 09:34:29;;;;;;;6.80;1.50;;;;;;;;;;5031383;28;20112;-82
2022/12/06 09:36:58;;;;;;;6.45;1.60;;;;;;;;;;5038256;28;20017;-82
2022/12/06 09:39:31;;;;;;;3.42;1.60;;;;;;;;;;5028148;28;20022;-82
2022/12/06 09:42:15;;;;;;;4.63;1.60;;;;;;;;;;5038137;28;20643;-81
2022/12/06 09:45:00;;;;;;;5.57;1.60;;;;;;;;;;5038040;28;20077;-81
2022/12/06 09:47:32;;;;;;;7.57;2.55;;;;;;;;;;5037892;28;20045;-81
2022/12/06 09:49:59;;;;;;;5.40;1.80;;;;;;;;;;5026213;28;20562;-81
2022/12/06 09:52:37;;;;;;;3.95;1.73;;;;;;;;;;5032034;28;20040;-81
2022/12/06 09:55:14;;;;;;;6.25;2.03;;;;;;;;;;5036128;28;20082;-81
2022/12/06 09:57:54;;;;;;;6.38;1.58;;;;;;;;;;5032506;28;20111;-81
2022/12/06 10:00:21;;;;;;;4.70;1.75;;;;;;;;;;5038539;28;20060;-81
2022/12/06 10:02:48;;;;;;;7.25;1.80;;;;;;;;;;5038743;28;20034;-82
2022/12/06 10:05:32;;;;;;;4.43;1.65;;;;;;;;;;5046533;28;20703;-81
2022/12/06 10:08:18;;;;;;;4.68;1.55;;;;;;;;;;5031274;28;20046;-81
2022/12/06 10:10:58;;;;;;;8.73;1.63;;;;;;;;;;5016915;28;20116;-81
2022/12/06 10:13:34;;;;;;;7.05;1.60;;;;;;;;;;5031536;28;20080;-81
2022/12/06 10:16:22;;;;;;;5.20;1.33;;;;;;;;;;5035009;28;20148;-81
2022/12/06 10:19:01;;;;;;;5.70;2.42;;;;;;;;;;5034765;28;20163;-82
2022/12/06 10:21:48;;;;;;;7.63;1.73;;;;;;;;;;5045233;28;20487;-81
2022/12/06 10:24:20;;;;;;;7.32;1.77;;;;;;;;;;5049032;28;20542;-81
2022/12/06 10:26:48;;;;;;;4.00;1.52;;;;;;;;;;5037120;28;20499;-81
2022/12/06 10:29:19;;;;;;;5.20;1.92;;;;;;;;;;5045478;28;20030;-81
2022/12/06 10:31:50;;;;;;;5.80;1.70;;;;;;;;;;5031884;28;20097;-81
2022/12/06 10:34:21;;;;;;;7.03;1.63;;;;;;;;;;5031399;28;20026;-81
2022/12/06 10:37:05;;;;;;;5.25;1.50;;;;;;;;;;5025861;28;20025;-81
2022/12/06 10:39:46;;;;;;;4.22;1.75;;;;;;;;;;5016081;28;20033;-81
2022/12/06 10:42:15;;;;;;;5.40;1.27;;;;;;;;;;5021364;28;20475;-81
2022/12/06 10:44:51;;;;;;;4.47;1.50;;;;;;;;;;5015209;28;20029;-82
2022/12/06 10:47:40;;;;;;;3.08;1.30;;;;;;;;;;5014252;28;20131;-81
2022/12/06 10:50:22;;;;;;;5.18;1.83;;;;;;;;;;5013660;28;20052;-82
2022/12/06 10:52:51;;;;;;;5.53;1.58;;;;;;;;;;5018255;28;20071;-82
2022/12/06 10:55:17;;;;;;;7.53;1.92;;;;;;;;;;5018120;28;20029;-80
2022/12/06 10:57:50;;;;;;;6.70;1.90;;;;;;;;;;5013917;28;20060;-81
2022/12/06 11:00:21;;;;;;;6.20;1.85;;;;;;;;;;5022266;28;20086;-81
2022/12/06 11:02:48;;;;;;;5.78;2.15;;;;;;;;;;4993519;28;20054;-81
2022/12/06 11:05:29;;;;;;;5.07;1.67;;;;;;;;;;5026823;28;20034;-81
2022/12/06 11:07:59;;;;;;;6.00;1.92;;;;;;;;;;5013576;28;20041;-82
2022/12/06 11:10:26;;;;;;;5.85;1.90;;;;;;;;;;5011738;28;20018;-82
2022/12/06 11:13:17;;;;;;;9.90;2.55;;;;;;;;;;5015890;28;20060;-82
2022/12/06 11:15:50;;;;;;;7.53;2.42;;;;;;;;;;5025883;28;20044;-81
2022/12/06 11:18:17;;;;;;;7.28;1.98;;;;;;;;;;5022986;28;20013;-81
2022/12/06 11:20:57;;;;;;;5.93;2.30;;;;;;;;;;5015089;28;20088;-81
2022/12/06 11:23:29;;;;;;;5.57;2.30;;;;;;;;;;5021104;28;20065;-82
2022/12/06 11:25:59;;;;;;;8.98;2.40;;;;;;;;;;5022718;28;20571;-82
2022/12/06 11:28:36;;;;;;;5.90;2.35;;;;;;;;;;5014688;28;20032;-82
2022/12/06 11:31:06;;;;;;;9.13;2.75;;;;;;;;;;5017216;28;20025;-82
2022/12/06 11:33:33;;;;;;;6.63;2.38;;;;;;;;;;5015392;28;20327;-82
2022/12/06 11:36:03;;;;;;;6.90;2.20;;;;;;;;;;5017913;28;20473;-82
2022/12/06 11:38:30;;;;;;;5.30;1.90;;;;;;;;;;5034387;28;20049;-82
2022/12/06 11:40:56;;;;;;;6.20;1.90;;;;;;;;;;5017110;28;20518;-82
2022/12/06 11:43:28;;;;;;;8.82;1.67;;;;;;;;;;5025984;28;20041;-82
2022/12/06 11:45:56;;;;;;;13.90;2.20;;;;;;;;;;5017390;28;20026;-82
2022/12/06 11:48:29;;;;;;;10.73;1.60;;;;;;;;;;5025147;28;20026;-82
2022/12/06 11:50:55;;;;;;;6.22;1.90;;;;;;;;;;5018413;28;20017;-82
2022/12/06 11:53:21;;;;;;;5.28;1.20;;;;;;;;;;5023107;28;20030;-82
2022/12/06 11:55:51;;;;;;;6.72;1.77;;;;;;;;;;5011209;28;20022;-82
2022/12/06 11:58:40;;;;;;;4.30;1.60;;;;;;;;;;5012936;28;20018;-82
2022/12/06 12:01:12;;;;;;;6.05;1.73;;;;;;;;;;5010181;28;20499;-82
2022/12/06 12:03:40;;;;;;;4.20;1.27;;;;;;;;;;5011134;28;20120;-82
2022/12/06 12:06:12;;;;;;;6.47;1.30;;;;;;;;;;5016901;28;20104;-83
2022/12/06 12:08:38;;;;;;;8.90;2.03;;;;;;;;;;5007051;28;20053;-82
2022/12/06 12:11:05;;;;;;;3.45;1.73;;;;;;;;;;5013122;28;20045;-82
2022/12/06 12:13:44;;;;;;;5.53;1.45;;;;;;;;;;5016434;28;20116;-82
2022/12/06 12:16:10;;;;;;;6.43;1.52;;;;;;;;;;5016506;28;20028;-82
2022/12/06 12:18:38;;;;;;;6.10;1.70;;;;;;;;;;5013528;28;20072;-82
2022/12/06 12:21:05;;;;;;;5.38;1.20;;;;;;;;;;5023604;28;20480;-82
2022/12/06 12:23:37;;;;;;;6.25;1.35;;;;;;;;;;5013947;28;20037;-82
2022/12/06 12:26:03;;;;;;;4.57;1.35;;;;;;;;;;5019948;28;20038;-82
2022/12/06 12:28:33;;;;;;;5.47;1.65;;;;;;;;;;5017679;28;20151;-82
2022/12/06 12:31:08;;;;;;;3.33;1.40;;;;;;;;;;5017367;28;20104;-82
2022/12/06 12:33:34;;;;;;;7.60;1.40;;;;;;;;;;5015699;28;20479;-83
2022/12/06 12:36:04;;;;;;;4.68;1.30;;;;;;;;;;5014648;28;20057;-82
2022/12/06 12:38:33;;;;;;;7.47;1.30;;;;;;;;;;5005938;28;20109;-82
2022/12/06 12:41:01;;;;;;;6.18;1.60;;;;;;;;;;5015537;28;20033;-81
2022/12/06 12:43:32;;;;;;;4.65;1.50;;;;;;;;;;5012190;28;20057;-82
2022/12/06 12:46:06;;;;;;;6.85;1.40;;;;;;;;;;5006162;28;20029;-82
2022/12/06 12:48:33;;;;;;;5.10;1.50;;;;;;;;;;5011737;28;20061;-82
2022/12/06 12:51:00;;;;;;;6.45;1.60;;;;;;;;;;5006545;28;20569;-82
2022/12/06 12:53:31;;;;;;;3.05;1.58;;;;;;;;;;5013341;28;20049;-82
2022/12/06 12:56:09;;;;;;;8.48;2.05;;;;;;;;;;5010562;28;20499;-83
2022/12/06 12:58:37;;;;;;;4.40;1.52;;;;;;;;;;5023428;28;20574;-82
2022/12/06 13:01:07;;;;;;;8.20;1.98;;;;;;;;;;5009191;28;20033;-82
2022/12/06 13:03:34;;;;;;;7.97;1.60;;;;;;;;;;5027408;28;20598;-82
2022/12/06 13:06:01;;;;;;;5.72;1.27;;;;;;;;;;5013391;28;20033;-82
2022/12/06 13:08:35;;;;;;;5.80;1.33;;;;;;;;;;5027848;28;20068;-82
2022/12/06 13:11:02;;;;;;;4.47;1.30;;;;;;;;;;5017193;28;20396;-82
2022/12/06 13:13:32;;;;;;;5.00;1.15;;;;;;;;;;5026811;28;20033;-82
2022/12/06 13:15:59;;;;;;;4.35;1.20;;;;;;;;;;5016216;28;20141;-82
2022/12/06 13:18:38;;;;;;;5.63;1.70;;;;;;;;;;5019178;28;20128;-82
2022/12/06 13:21:17;;;;;;;9.38;1.60;;;;;;;;;;5016586;28;20565;-81
2022/12/06 13:23:43;;;;;;;5.82;1.17;;;;;;;;;;5013381;28;20434;-82
2022/12/06 13:26:16;;;;;;;6.38;1.20;;;;;;;;;;5018939;28;20080;-82
2022/12/06 13:28:48;;;;;;;3.55;1.33;;;;;;;;;;5027468;28;20026;-81
2022/12/06 13:31:14;;;;;;;;;;;;;;;;;;5016489;28;20172;-82
2022/12/06 13:33:45;;;;;;;4.22;1.08;;;;;;;;;;5017041;28;20011;-82
2022/12/06 13:36:12;;;;;;;4.22;1.30;;;;;;;;;;5014003;28;20087;-82
2022/12/06 13:38:39;;;;;;;5.75;1.10;;;;;;;;;;5013377;28;20037;-81
2022/12/06 13:42:16;;;;;;;14.90;2.20;;;;;;;;;;5024803;28;20053;-82
2022/12/06 13:44:01;;;;;;;7.65;1.70;;;;;;;;;;5013880;28;20129;-82
2022/12/06 13:46:29;;;;;;;17.25;2.30;;;;;;;;;;5019910;28;20086;-82
2022/12/06 13:48:56;;;;;;;11.23;1.80;;;;;;;;;;5014526;28;20030;-82
2022/12/06 13:51:29;;;;;;;10.15;1.42;;;;;;;;;;5021328;28;20156;-82
2022/12/06 13:54:15;;;;;;;7.10;1.70;;;;;;;;;;5016187;28;20037;-82
2022/12/06 13:56:42;;;;;;;2.72;1.30;;;;;;;;;;5008978;28;20063;-82
2022/12/06 13:59:11;;;;;;;5.90;1.98;;;;;;;;;;5014478;28;20513;-82
2022/12/06 14:01:44;;;;;;;6.55;1.20;;;;;;;;;;5030254;28;20419;-81
2022/12/06 14:04:28;;;;;;;8.23;1.42;;;;;;;;;;5017005;28;20025;-82
2022/12/06 14:06:54;;;;;;;5.15;1.27;;;;;;;;;;5027592;28;20041;-82
2022/12/06 14:09:22;;;;;;;6.07;1.67;;;;;;;;;;5019000;28;20033;-82
2022/12/06 14:11:48;;;;;;;2.47;0.95;;;;;;;;;;5015652;28;20507;-82
2022/12/06 14:14:16;;;;;;;6.35;1.42;;;;;;;;;;5017000;28;20554;-81
2022/12/06 14:16:45;;;;;;;2.78;1.02;;;;;;;;;;5032777;28;20030;-82
2022/12/06 14:19:16;;;;;;;3.15;1.10;;;;;;;;;;5018593;28;20030;-82
2022/12/06 14:21:50;;;;;;;6.57;1.35;;;;;;;;;;5031802;28;20127;-82
2022/12/06 14:24:31;;;;;;;6.32;1.13;;;;;;;;;;5019243;28;20026;-83
2022/12/06 14:27:13;;;;;;;3.95;1.33;;;;;;;;;;5016239;28;20050;-82
2022/12/06 14:29:40;;;;;;;4.93;1.33;;;;;;;;;;5021901;28;20415;-82
2022/12/06 14:32:06;;;;;;;4.43;1.30;;;;;;;;;;5019684;28;20547;-83
2022/12/06 14:34:34;;;;;;;5.75;1.25;;;;;;;;;;5017277;28;20264;-82
2022/12/06 14:37:01;;;;;;;4.63;1.50;;;;;;;;;;5014936;28;20117;-82
2022/12/06 14:39:31;;;;;;;5.38;1.10;;;;;;;;;;5016277;28;20130;-82
2022/12/06 14:44:51;;;;;;;7.85;1.60;;;;;;;;;;5006443;28;20055;-82
2022/12/06 14:47:19;;;;;;;5.88;1.65;;;;;;;;;;5013655;28;20479;-82
2022/12/06 14:52:34;;;;;;;9.43;2.05;;;;;;;;;;5009372;28;20534;-82
2022/12/06 14:55:12;;;;;;;11.70;2.83;;;;;;;;;;5015532;28;20024;-82
2022/12/06 14:57:49;;;;;;;10.02;2.83;;;;;;;;;;5007913;28;20025;-82
2022/12/06 15:00:19;;;;;;;10.95;2.58;;;;;;;;;;5014272;28;20026;-82
2022/12/06 15:03:03;;;;;;;6.50;2.08;;;;;;;;;;5017176;28;20030;-82
2022/12/06 15:05:40;;;;;;;6.38;2.22;;;;;;;;;;5015066;28;20488;-81
2022/12/06 15:08:19;;;;;;;12.07;2.53;;;;;;;;;;5025288;28;20550;-82
2022/12/06 15:10:56;;;;;;;15.15;2.67;;;;;;;;;;5018334;28;20025;-82
2022/12/06 15:13:23;;;;;;;9.43;2.38;;;;;;;;;;5017960;28;20022;-82
2022/12/06 15:16:00;;;;;;;6.43;2.28;;;;;;;;;;5024433;28;20248;-82
2022/12/06 15:18:27;;;;;;;8.45;2.25;;;;;;;;;;5015323;28;20130;-81
2022/12/06 15:20:53;;;;;;;8.52;2.58;;;;;;;;;;5019035;28;20037;-82
2022/12/06 15:23:40;;;;;;;7.85;2.53;;;;;;;;;;5014492;28;20132;-84
2022/12/06 15:26:08;;;;;;;7.15;2.13;;;;;;;;;;5022206;28;20040;-83
2022/12/06 15:28:34;;;;;;;7.45;2.10;;;;;;;;;;5015374;28;20026;-82